Historique des mesures à Cassis (13260), France
Quotidien Résumé Avril 13, 2018 Unités:  Métrique    US   Métrique/US
« Précédent (Jour)
Suivant (Jour) »
Quotidien Hebdomadaire Mensuel Annuel Période au choix
  Maximum: Minimum: Moyenne:
Température: TemperatureC °C 10.1 °C 12.9 °C
Point de rosée: DewpointC °C 8.0 °C 9.4 °C
Humidité: Humidity % 68 % 76 %
Vitesse du vent: 0 km/h 0 km/h 4.7 km/h
Rafales: 0 km/h - -
Vent:- - ESE
Pression: PressurehPa hPa 1002.6 hPa -
Précipitations: 0.0 mm    
Historical Graphs
 
 
Mesures pour : Avril 13, 2018
Heure Temperature Point de rosée Pression Vent Vitesse du vent Rafales Humidité Pluie (par heure) Conditions
TemperatureC °C DewpointC °C PressurehPa hPa Calm     Humidity % HourlyPrecipMM mm SoftwareType W/m2
00:12 10.1 °C 8.0 °C 1002.6 hPa Calm     87 % 0.0 mm open2300-1.11 W/m2
01:12 10.1 °C 8.0 °C 1003.3 hPa Calm     87 % 0.0 mm open2300-1.11 W/m2
02:11 10.5 °C 8.4 °C 1003.9 hPa Calm     87 % 0.0 mm open2300-1.11 W/m2
03:11 10.8 °C 8.7 °C 1003.9 hPa Calm   4.2 km/h 87 % 0.0 mm open2300-1.11 W/m2
04:11 10.8 °C 8.5 °C 1003.9 hPa Calm     86 % 0.0 mm open2300-1.11 W/m2
05:12 10.7 °C 8.4 °C 1004.6 hPa ESE 4.2 km/h 4.7 km/h 86 % 0.0 mm open2300-1.11 W/m2
06:11 10.8 °C 8.5 °C 1005.0 hPa SE 4.2 km/h 4.2 km/h 86 % 0.0 mm open2300-1.11 W/m2
07:11 10.6 °C 8.3 °C 1005.3 hPa ENE 2.9 km/h 3.4 km/h 86 % 0.0 mm open2300-1.11 W/m2
08:11 11.1 °C 8.8 °C 1006.3 hPa East 6.4 km/h 6.4 km/h 86 % 0.0 mm open2300-1.11 W/m2
09:11 11.8 °C 9.3 °C 1007.0 hPa ESE 6.4 km/h 6.4 km/h 85 % 0.0 mm open2300-1.11 W/m2
10:10 12.9 °C 10.2 °C 1007.7 hPa SSE 3.4 km/h 3.4 km/h 84 % 0.0 mm open2300-1.11 W/m2
11:10 14.1 °C 11.1 °C 1008.4 hPa NE 12.2 km/h 12.2 km/h 82 % 0.0 mm open2300-1.11 W/m2
12:10 15.2 °C 11.0 °C 1009.4 hPa SSE 6.4 km/h 6.4 km/h 76 % 0.0 mm open2300-1.11 W/m2
13:10 16.8 °C 12.5 °C 1009.7 hPa SE 6.4 km/h 9.8 km/h 76 % 0.0 mm open2300-1.11 W/m2
14:10 17.6 °C 12.5 °C 1010.0 hPa SE 13.2 km/h 13.2 km/h 72 % 0.0 mm open2300-1.11 W/m2
16:10 18.3 °C 12.3 °C 1010.0 hPa SW 10.3 km/h 17.9 km/h 68 % 0.0 mm open2300-1.11 W/m2
17:10 17.9 °C 11.9 °C 1010.7 hPa ENE 5.1 km/h 14.5 km/h 68 % 0.0 mm open2300-1.11 W/m2
18:10 16.4 °C 10.5 °C 1010.7 hPa Calm   5.6 km/h 68 % 0.0 mm open2300-1.11 W/m2
19:10 15.6 °C 10.2 °C 1010.7 hPa ENE 6.4 km/h 10.3 km/h 70 % 0.0 mm open2300-1.11 W/m2
20:12 14.8 °C 10.0 °C 1011.4 hPa Calm   10.3 km/h 73 % 0.0 mm open2300-1.11 W/m2
21:12 14.4 °C 9.8 °C 1011.7 hPa ESE 11.6 km/h 11.6 km/h 74 % 0.0 mm open2300-1.11 W/m2
22:12 14.4 °C 9.8 °C 1012.8 hPa SE 9.3 km/h 14 km/h 74 % 0.0 mm open2300-1.11 W/m2
23:11 14.1 °C 9.5 °C 1013.1 hPa East 4.7 km/h 15 km/h 74 % 0.0 mm open2300-1.11 W/m2
Observations météo à CASSIS
WU-History script by Weather Underground - 1 mb